createdAt,value
2018-09-30T00:01:03.125Z,9.70
2018-09-30T00:03:37.210Z,9.70
2018-09-30T00:06:06.213Z,9.80
2018-09-30T00:08:34.920Z,9.80
2018-09-30T00:11:03.658Z,9.90
2018-09-30T00:13:32.359Z,9.80
2018-09-30T00:16:01.160Z,9.80
2018-09-30T00:18:29.883Z,9.80
2018-09-30T00:20:58.605Z,9.80
2018-09-30T00:23:27.460Z,9.70
2018-09-30T00:26:01.674Z,9.70
2018-09-30T00:28:30.767Z,9.60
2018-09-30T00:30:59.560Z,9.50
2018-09-30T00:33:28.361Z,9.50
2018-09-30T00:35:57.264Z,9.50
2018-09-30T00:38:26.055Z,9.50
2018-09-30T00:40:55.035Z,9.40
2018-09-30T00:43:23.758Z,9.40
2018-09-30T00:45:52.544Z,9.40
2018-09-30T00:48:21.233Z,9.30
2018-09-30T00:50:50.080Z,9.30
2018-09-30T00:53:18.902Z,9.30
2018-09-30T00:55:47.604Z,9.30
2018-09-30T00:58:16.376Z,9.20
2018-09-30T01:00:45.203Z,9.10
2018-09-30T01:03:13.985Z,9.10
2018-09-30T01:05:42.708Z,9.10
2018-09-30T01:08:11.510Z,9.00
2018-09-30T01:10:40.306Z,9.00
2018-09-30T01:13:13.350Z,8.80
2018-09-30T01:15:48.513Z,8.80
2018-09-30T01:18:21.870Z,8.80
2018-09-30T01:20:57.054Z,8.80
2018-09-30T01:23:31.193Z,8.80
2018-09-30T01:26:05.163Z,8.80
2018-09-30T01:28:39.224Z,8.90
2018-09-30T01:31:13.065Z,9.00
2018-09-30T01:33:41.966Z,8.90
2018-09-30T01:36:10.726Z,9.00
2018-09-30T01:38:39.578Z,9.10
2018-09-30T01:41:08.514Z,9.10
2018-09-30T01:43:37.290Z,9.10
2018-09-30T01:46:06.136Z,9.10
2018-09-30T01:48:34.944Z,9.10
2018-09-30T01:51:03.711Z,9.10
2018-09-30T01:53:32.450Z,9.20
2018-09-30T01:56:01.181Z,9.20
2018-09-30T01:58:30.054Z,9.10
2018-09-30T02:00:58.941Z,9.10
2018-09-30T02:03:27.680Z,9.10
2018-09-30T02:05:56.576Z,9.10
2018-09-30T02:08:25.281Z,9.10
2018-09-30T02:10:54.068Z,9.00
2018-09-30T02:13:22.945Z,9.00
2018-09-30T02:15:51.813Z,8.90
2018-09-30T02:18:20.519Z,9.00
2018-09-30T02:20:49.225Z,8.80
2018-09-30T02:23:17.975Z,8.60
2018-09-30T02:25:46.803Z,8.60
2018-09-30T02:28:15.535Z,8.30
2018-09-30T02:30:44.245Z,8.30
2018-09-30T02:33:13.098Z,8.30
2018-09-30T02:35:41.890Z,8.30
2018-09-30T02:38:10.869Z,8.20
2018-09-30T02:40:39.818Z,8.20
2018-09-30T02:43:08.636Z,8.10
2018-09-30T02:45:37.374Z,8.00
2018-09-30T02:48:06.225Z,8.10
2018-09-30T02:50:34.903Z,8.00
2018-09-30T02:53:06.886Z,7.80
2018-09-30T02:55:36.118Z,7.90
2018-09-30T02:58:04.917Z,7.90
2018-09-30T03:00:33.633Z,7.90
2018-09-30T03:03:02.562Z,7.90
2018-09-30T03:05:31.413Z,7.90
2018-09-30T03:08:05.517Z,7.80
2018-09-30T03:10:34.260Z,7.80
2018-09-30T03:13:03.097Z,7.80
2018-09-30T03:15:31.843Z,7.70
2018-09-30T03:18:00.628Z,7.80
2018-09-30T03:20:29.353Z,7.80
2018-09-30T03:22:58.064Z,7.70
2018-09-30T03:25:26.732Z,7.70
2018-09-30T03:27:55.430Z,7.60
2018-09-30T03:30:24.318Z,7.60
2018-09-30T03:32:53.086Z,7.60
2018-09-30T03:35:21.808Z,7.60
2018-09-30T03:37:50.761Z,7.70
2018-09-30T03:40:19.485Z,7.70
2018-09-30T03:42:48.235Z,7.70
2018-09-30T03:45:16.986Z,7.70
2018-09-30T03:47:45.645Z,7.60
2018-09-30T03:50:14.493Z,7.60
2018-09-30T03:52:44.190Z,7.60
2018-09-30T03:55:12.942Z,7.50
2018-09-30T03:57:41.710Z,7.50
2018-09-30T04:00:10.517Z,7.50
2018-09-30T04:02:39.201Z,7.60
2018-09-30T04:05:07.998Z,7.40
2018-09-30T04:07:36.709Z,7.30
2018-09-30T04:10:05.520Z,7.30
2018-09-30T04:12:34.236Z,7.30
2018-09-30T04:15:03.010Z,7.20
2018-09-30T04:17:31.808Z,7.20
2018-09-30T04:20:00.432Z,7.20
2018-09-30T04:22:29.245Z,7.20
2018-09-30T04:24:58.142Z,7.20
2018-09-30T04:27:26.920Z,6.90
2018-09-30T04:29:55.733Z,6.80
2018-09-30T04:32:24.563Z,6.60
2018-09-30T04:34:53.263Z,6.50
2018-09-30T04:37:21.974Z,6.50
2018-09-30T04:39:50.689Z,6.80
2018-09-30T04:42:19.553Z,6.80
2018-09-30T04:44:48.336Z,6.80
2018-09-30T04:47:17.044Z,6.60
2018-09-30T04:49:45.837Z,6.20
2018-09-30T04:52:14.561Z,6.30
2018-09-30T04:54:43.267Z,6.20
2018-09-30T04:57:12.007Z,6.10
2018-09-30T04:59:40.786Z,6.10
2018-09-30T05:02:09.453Z,6.20
2018-09-30T05:04:38.249Z,6.30
2018-09-30T05:07:06.913Z,6.30
2018-09-30T05:09:35.729Z,6.40
2018-09-30T05:12:04.609Z,6.30
2018-09-30T05:14:33.375Z,6.40
2018-09-30T05:17:02.165Z,6.40
2018-09-30T05:19:30.970Z,6.40
2018-09-30T05:21:59.663Z,6.50
2018-09-30T05:24:28.484Z,6.50
2018-09-30T05:26:57.338Z,6.50
2018-09-30T05:29:26.192Z,6.40
2018-09-30T05:31:54.889Z,6.50
2018-09-30T05:34:23.686Z,6.50
2018-09-30T05:36:52.491Z,6.60
2018-09-30T05:39:21.377Z,6.70
2018-09-30T05:41:50.239Z,6.60
2018-09-30T05:44:18.975Z,6.50
2018-09-30T05:46:47.817Z,6.40
2018-09-30T05:49:16.686Z,6.40
2018-09-30T05:51:45.521Z,6.50
2018-09-30T05:54:14.249Z,6.50
2018-09-30T05:56:42.961Z,6.50
2018-09-30T05:59:11.817Z,6.60
2018-09-30T06:01:40.769Z,6.70
2018-09-30T06:04:09.964Z,6.70
2018-09-30T06:06:38.721Z,6.80
2018-09-30T06:09:10.558Z,6.90
2018-09-30T06:11:39.315Z,6.80
2018-09-30T06:14:08.359Z,6.80
2018-09-30T06:16:37.095Z,6.80
2018-09-30T06:19:07.230Z,6.80
2018-09-30T06:21:36.046Z,6.80
2018-09-30T06:24:04.866Z,6.90
2018-09-30T06:26:33.703Z,6.90
2018-09-30T06:29:02.577Z,7.00
2018-09-30T06:31:31.467Z,7.00
2018-09-30T06:34:00.315Z,7.00
2018-09-30T06:36:29.009Z,7.20
2018-09-30T06:38:57.944Z,7.20
2018-09-30T06:41:26.779Z,7.40
2018-09-30T06:43:55.524Z,7.40
2018-09-30T06:46:24.265Z,7.60
2018-09-30T06:48:53.002Z,7.60
2018-09-30T06:51:21.777Z,7.60
2018-09-30T06:53:50.574Z,7.70
2018-09-30T06:56:19.349Z,7.70
2018-09-30T06:58:48.152Z,7.70
2018-09-30T07:01:16.969Z,7.70
2018-09-30T07:03:45.678Z,7.70
2018-09-30T07:06:14.390Z,7.80
2018-09-30T07:08:43.254Z,8.00
2018-09-30T07:11:12.039Z,7.90
2018-09-30T07:13:40.817Z,8.10
2018-09-30T07:16:09.639Z,8.30
2018-09-30T07:18:38.371Z,8.50
2018-09-30T07:21:07.163Z,8.60
2018-09-30T07:23:36.092Z,8.70
2018-09-30T07:26:05.038Z,8.80
2018-09-30T07:28:33.959Z,9.00
2018-09-30T07:31:02.704Z,9.20
2018-09-30T07:33:31.534Z,9.40
2018-09-30T07:36:00.337Z,9.50
2018-09-30T07:38:29.139Z,9.60
2018-09-30T07:40:57.975Z,9.60
2018-09-30T07:43:26.786Z,9.80
2018-09-30T07:45:55.634Z,9.90
2018-09-30T07:48:24.634Z,9.90
2018-09-30T07:50:53.669Z,10.10
2018-09-30T07:53:22.574Z,10.30
2018-09-30T07:55:51.326Z,10.60
2018-09-30T07:58:20.191Z,10.90
2018-09-30T08:00:48.969Z,10.90
2018-09-30T08:03:17.812Z,11.10
2018-09-30T08:05:46.920Z,11.40
2018-09-30T08:08:16.126Z,11.60
2018-09-30T08:10:45.247Z,11.90
2018-09-30T08:13:14.057Z,12.10
2018-09-30T08:15:42.865Z,12.50
2018-09-30T08:18:11.807Z,14.00
2018-09-30T08:20:40.558Z,16.50
2018-09-30T08:23:09.414Z,18.60
2018-09-30T08:25:38.124Z,19.80
2018-09-30T08:28:07.044Z,21.10
2018-09-30T08:30:36.116Z,22.60
2018-09-30T08:33:05.104Z,23.80
2018-09-30T08:35:34.336Z,24.50
2018-09-30T08:38:08.678Z,25.30
2018-09-30T08:40:42.655Z,26.80
2018-09-30T08:43:11.530Z,28.30
2018-09-30T08:45:40.656Z,29.60
2018-09-30T08:48:09.454Z,30.60
2018-09-30T08:50:38.512Z,31.70
2018-09-30T08:53:07.468Z,33.30
2018-09-30T08:55:36.298Z,34.30
2018-09-30T08:58:05.200Z,35.00
2018-09-30T09:00:33.976Z,35.00
2018-09-30T09:03:02.833Z,35.60
2018-09-30T09:05:31.730Z,37.10
2018-09-30T09:08:00.599Z,36.80
2018-09-30T09:10:29.677Z,38.00
2018-09-30T09:12:58.887Z,38.50
2018-09-30T09:15:27.837Z,39.00
2018-09-30T09:17:56.638Z,39.90
2018-09-30T09:20:25.536Z,39.70
2018-09-30T09:22:54.400Z,38.80
2018-09-30T09:25:23.161Z,39.60
2018-09-30T09:27:52.031Z,39.80
2018-09-30T09:30:20.977Z,40.50
2018-09-30T09:32:49.914Z,41.20
2018-09-30T09:35:18.693Z,41.00
2018-09-30T09:37:47.379Z,41.20
2018-09-30T09:40:16.160Z,42.00
2018-09-30T09:42:45.193Z,42.30
2018-09-30T09:45:13.985Z,41.60
2018-09-30T09:47:42.926Z,41.60
2018-09-30T09:50:11.941Z,42.40
2018-09-30T09:52:40.831Z,42.50
2018-09-30T09:55:09.707Z,42.20
2018-09-30T09:57:38.525Z,40.70
2018-09-30T10:00:08.382Z,40.60
2018-09-30T10:02:37.298Z,41.80
2018-09-30T10:05:06.325Z,42.80
2018-09-30T10:07:35.105Z,43.10
2018-09-30T10:10:03.910Z,44.10
2018-09-30T10:12:32.641Z,43.30
2018-09-30T10:15:01.410Z,42.60
2018-09-30T10:17:30.274Z,41.90
2018-09-30T10:19:59.117Z,42.30
2018-09-30T10:22:27.854Z,41.30
2018-09-30T10:24:56.685Z,41.50
2018-09-30T10:27:25.457Z,41.50
2018-09-30T10:29:54.337Z,41.80
2018-09-30T10:32:23.169Z,43.20
2018-09-30T10:34:52.039Z,43.80
2018-09-30T10:37:21.069Z,44.50
2018-09-30T10:39:49.824Z,45.40
2018-09-30T10:42:18.585Z,45.40
2018-09-30T10:44:47.513Z,44.80
2018-09-30T10:47:16.391Z,45.60
2018-09-30T10:49:45.121Z,45.30
2018-09-30T10:52:14.040Z,44.50
2018-09-30T10:54:42.867Z,43.60
2018-09-30T10:57:11.758Z,44.00
2018-09-30T10:59:40.480Z,45.00
2018-09-30T11:02:09.298Z,45.50
2018-09-30T11:04:38.101Z,44.70
2018-09-30T11:07:06.825Z,44.30
2018-09-30T11:09:35.601Z,44.90
2018-09-30T11:12:04.516Z,44.70
2018-09-30T11:14:33.333Z,44.70
2018-09-30T11:17:02.167Z,44.90
2018-09-30T11:19:31.008Z,44.60
2018-09-30T11:21:59.724Z,45.00
2018-09-30T11:24:28.595Z,46.20
2018-09-30T11:26:57.353Z,45.10
2018-09-30T11:29:26.086Z,45.80
2018-09-30T11:31:55.049Z,45.80
2018-09-30T11:34:23.730Z,45.90
2018-09-30T11:36:52.580Z,45.30
2018-09-30T11:39:21.425Z,41.80
2018-09-30T11:41:50.428Z,38.30
2018-09-30T11:44:19.261Z,35.40
2018-09-30T11:46:48.135Z,32.70
2018-09-30T11:49:16.839Z,30.20
2018-09-30T11:51:45.645Z,28.70
2018-09-30T11:54:14.454Z,27.40
2018-09-30T11:56:43.246Z,26.90
2018-09-30T11:59:12.132Z,26.00
2018-09-30T12:01:40.891Z,25.80
2018-09-30T12:04:09.740Z,25.40
2018-09-30T12:06:38.604Z,24.20
2018-09-30T12:09:09.199Z,23.30
2018-09-30T12:11:38.112Z,22.80
2018-09-30T12:14:07.229Z,22.60
2018-09-30T12:16:35.990Z,22.20
2018-09-30T12:19:04.792Z,22.10
2018-09-30T12:21:33.901Z,22.20
2018-09-30T12:24:09.180Z,21.80
2018-09-30T12:26:38.082Z,21.80
2018-09-30T12:29:06.853Z,21.80
2018-09-30T12:31:35.824Z,21.80
2018-09-30T12:34:05.141Z,22.10
2018-09-30T12:36:34.119Z,22.10
2018-09-30T12:39:02.876Z,22.30
2018-09-30T12:41:31.804Z,22.20
2018-09-30T12:44:00.613Z,22.40
2018-09-30T12:46:29.683Z,22.20
2018-09-30T12:48:58.589Z,22.20
2018-09-30T12:51:27.285Z,21.70
2018-09-30T12:53:56.210Z,21.10
2018-09-30T12:56:24.956Z,21.00
2018-09-30T12:58:53.837Z,21.00
2018-09-30T13:01:22.632Z,21.00
2018-09-30T13:03:51.504Z,21.00
2018-09-30T13:06:20.297Z,20.80
2018-09-30T13:08:49.233Z,21.00
2018-09-30T13:11:18.306Z,21.10
2018-09-30T13:13:47.116Z,21.30
2018-09-30T13:16:15.909Z,21.10
2018-09-30T13:18:44.925Z,21.00
2018-09-30T13:21:13.948Z,21.00
2018-09-30T13:23:43.216Z,21.00
2018-09-30T13:26:11.950Z,20.80
2018-09-30T13:28:40.902Z,20.70
2018-09-30T13:31:09.809Z,20.80
2018-09-30T13:33:38.753Z,20.90
2018-09-30T13:36:07.545Z,20.90
2018-09-30T13:38:36.352Z,20.90
2018-09-30T13:41:05.307Z,21.00
2018-09-30T13:43:33.881Z,21.20
2018-09-30T13:46:02.804Z,21.40
2018-09-30T13:48:31.628Z,21.30
2018-09-30T13:51:00.505Z,21.40
2018-09-30T13:53:29.455Z,21.40
2018-09-30T13:55:58.274Z,21.30
2018-09-30T13:58:27.324Z,21.30
2018-09-30T14:00:56.175Z,21.30
2018-09-30T14:03:24.977Z,21.20
2018-09-30T14:05:53.854Z,21.30
2018-09-30T14:08:22.895Z,21.30
2018-09-30T14:10:51.770Z,21.10
2018-09-30T14:13:20.548Z,21.30
2018-09-30T14:15:49.407Z,21.60
2018-09-30T14:18:18.134Z,21.70
2018-09-30T14:20:46.976Z,21.60
2018-09-30T14:23:15.799Z,21.40
2018-09-30T14:25:44.566Z,21.40
2018-09-30T14:28:13.304Z,21.40
2018-09-30T14:30:42.114Z,21.20
2018-09-30T14:33:10.948Z,21.10
2018-09-30T14:35:39.822Z,21.00
2018-09-30T14:38:08.789Z,20.80
2018-09-30T14:40:37.613Z,20.90
2018-09-30T14:43:06.515Z,20.90
2018-09-30T14:45:35.456Z,20.80
2018-09-30T14:48:04.317Z,20.80
2018-09-30T14:50:33.092Z,21.00
2018-09-30T14:53:01.872Z,20.90
2018-09-30T14:55:30.806Z,21.00
2018-09-30T14:57:59.723Z,21.00
2018-09-30T15:00:28.701Z,20.80
2018-09-30T15:02:57.741Z,20.90
2018-09-30T15:05:26.593Z,21.00
2018-09-30T15:07:55.563Z,21.10
2018-09-30T15:10:24.413Z,21.10
2018-09-30T15:12:53.304Z,21.20
2018-09-30T15:15:22.117Z,21.30
2018-09-30T15:17:51.165Z,21.30
2018-09-30T15:20:20.262Z,21.20
2018-09-30T15:22:49.368Z,21.30
2018-09-30T15:25:18.370Z,21.20
2018-09-30T15:27:47.198Z,21.20
2018-09-30T15:30:16.186Z,21.20
2018-09-30T15:32:44.955Z,21.20
2018-09-30T15:35:13.725Z,21.20
2018-09-30T15:37:42.778Z,21.20
2018-09-30T15:40:11.589Z,21.20
2018-09-30T15:42:40.414Z,21.20
2018-09-30T15:45:09.476Z,21.10
2018-09-30T15:47:38.443Z,21.20
2018-09-30T15:50:07.550Z,21.30
2018-09-30T15:52:36.617Z,21.80
2018-09-30T15:55:05.628Z,23.00
2018-09-30T15:57:34.566Z,24.00
2018-09-30T16:00:03.446Z,24.50
2018-09-30T16:02:32.265Z,23.70
2018-09-30T16:05:01.034Z,22.70
2018-09-30T16:07:30.606Z,22.50
2018-09-30T16:09:59.796Z,22.30
2018-09-30T16:12:28.656Z,22.10
2018-09-30T16:14:57.574Z,21.70
2018-09-30T16:17:26.739Z,21.30
2018-09-30T16:19:55.646Z,21.00
2018-09-30T16:22:24.490Z,20.80
2018-09-30T16:24:53.388Z,20.60
2018-09-30T16:27:23.054Z,20.40
2018-09-30T16:29:51.906Z,20.30
2018-09-30T16:32:21.070Z,20.20
2018-09-30T16:34:49.914Z,20.10
2018-09-30T16:37:18.771Z,20.00
2018-09-30T16:39:47.605Z,19.90
2018-09-30T16:42:16.538Z,19.90
2018-09-30T16:44:45.396Z,19.80
2018-09-30T16:47:14.380Z,19.70
2018-09-30T16:49:43.378Z,19.50
2018-09-30T16:52:12.321Z,19.50
2018-09-30T16:54:41.357Z,19.40
2018-09-30T16:57:10.287Z,19.30
2018-09-30T16:59:39.272Z,19.20
2018-09-30T17:02:08.629Z,19.10
2018-09-30T17:04:37.602Z,19.00
2018-09-30T17:07:06.519Z,18.80
2018-09-30T17:09:35.615Z,18.80
2018-09-30T17:12:04.549Z,18.60
2018-09-30T17:14:33.457Z,18.50
2018-09-30T17:17:02.380Z,18.20
2018-09-30T17:19:31.317Z,18.10
2018-09-30T17:22:00.162Z,18.00
2018-09-30T17:24:29.158Z,17.80
2018-09-30T17:26:58.011Z,17.70
2018-09-30T17:29:26.962Z,17.70
2018-09-30T17:31:55.759Z,17.60
2018-09-30T17:34:24.675Z,17.50
2018-09-30T17:36:53.444Z,17.40
2018-09-30T17:39:22.270Z,17.20
2018-09-30T17:41:51.475Z,17.20
2018-09-30T17:44:20.273Z,17.00
2018-09-30T17:46:49.160Z,16.90
2018-09-30T17:49:18.060Z,16.70
2018-09-30T17:51:46.913Z,16.60
2018-09-30T17:54:15.890Z,16.60
2018-09-30T17:56:44.782Z,16.50
2018-09-30T17:59:14.225Z,16.50
2018-09-30T18:01:43.130Z,16.40
2018-09-30T18:04:11.984Z,16.30
2018-09-30T18:06:40.927Z,16.20
2018-09-30T18:09:10.934Z,16.00
2018-09-30T18:11:39.841Z,15.90
2018-09-30T18:14:08.949Z,16.00
2018-09-30T18:16:37.950Z,16.00
2018-09-30T18:19:06.977Z,15.90
2018-09-30T18:21:36.067Z,15.80
2018-09-30T18:24:05.544Z,15.80
2018-09-30T18:26:34.464Z,15.80
2018-09-30T18:29:03.485Z,15.70
2018-09-30T18:31:32.581Z,15.70
2018-09-30T18:34:01.712Z,15.60
2018-09-30T18:36:30.592Z,15.60
2018-09-30T18:38:59.661Z,15.60
2018-09-30T18:41:28.710Z,15.50
2018-09-30T18:43:58.045Z,15.60
2018-09-30T18:46:27.039Z,15.60
2018-09-30T18:48:56.283Z,15.40
2018-09-30T18:51:25.213Z,15.40
2018-09-30T18:53:54.271Z,15.30
2018-09-30T18:56:23.282Z,15.20
2018-09-30T18:58:52.458Z,15.20
2018-09-30T19:01:21.450Z,15.10
2018-09-30T19:03:54.157Z,15.10
2018-09-30T19:06:22.923Z,15.00
2018-09-30T19:08:51.681Z,14.90
2018-09-30T19:11:20.418Z,14.90
2018-09-30T19:13:49.464Z,14.80
2018-09-30T19:16:18.709Z,14.80
2018-09-30T19:18:47.749Z,14.90
2018-09-30T19:21:16.616Z,14.90
2018-09-30T19:23:45.702Z,14.70
2018-09-30T19:26:14.708Z,14.50
2018-09-30T19:28:43.681Z,14.50
2018-09-30T19:31:12.553Z,14.50
2018-09-30T19:33:41.341Z,14.50
2018-09-30T19:36:10.249Z,14.40
2018-09-30T19:38:39.200Z,14.40
2018-09-30T19:41:08.139Z,14.30
2018-09-30T19:43:37.539Z,14.30
2018-09-30T19:46:06.462Z,14.30
2018-09-30T19:48:35.330Z,14.30
2018-09-30T19:51:04.351Z,14.30
2018-09-30T19:53:33.450Z,14.30
2018-09-30T19:56:02.369Z,14.20
2018-09-30T19:58:31.217Z,14.00
2018-09-30T20:01:00.105Z,14.10
2018-09-30T20:03:33.383Z,14.10
2018-09-30T20:06:02.218Z,14.00
2018-09-30T20:08:31.096Z,14.00
2018-09-30T20:11:00.105Z,14.00
2018-09-30T20:13:29.103Z,13.90
2018-09-30T20:15:58.023Z,13.90
2018-09-30T20:18:27.055Z,13.70
2018-09-30T20:20:56.045Z,13.60
2018-09-30T20:23:25.069Z,13.60
2018-09-30T20:25:53.932Z,13.50
2018-09-30T20:28:22.745Z,13.50
2018-09-30T20:30:51.729Z,13.50
2018-09-30T20:33:20.689Z,13.40
2018-09-30T20:35:49.530Z,13.30
2018-09-30T20:38:18.395Z,13.30
2018-09-30T20:40:47.371Z,13.30
2018-09-30T20:43:16.243Z,13.30
2018-09-30T20:45:45.100Z,13.20
2018-09-30T20:48:14.049Z,13.20
2018-09-30T20:50:42.790Z,13.20
2018-09-30T20:53:11.722Z,13.20
2018-09-30T20:55:40.587Z,13.00
2018-09-30T20:58:09.422Z,13.10
2018-09-30T21:00:38.220Z,13.10
2018-09-30T21:03:07.158Z,13.00
2018-09-30T21:06:42.265Z,13.00
2018-09-30T21:09:12.611Z,13.00
2018-09-30T21:11:41.434Z,12.90
2018-09-30T21:14:10.262Z,12.90
2018-09-30T21:16:39.065Z,12.80
2018-09-30T21:19:07.997Z,12.80
2018-09-30T21:21:37.713Z,12.80
2018-09-30T21:24:06.629Z,12.80
2018-09-30T21:26:35.586Z,12.80
2018-09-30T21:29:04.555Z,12.70
2018-09-30T21:31:33.621Z,12.70
2018-09-30T21:34:02.577Z,12.60
2018-09-30T21:36:31.523Z,12.60
2018-09-30T21:39:00.497Z,12.60
2018-09-30T21:41:29.355Z,12.60
2018-09-30T21:43:58.133Z,12.60
2018-09-30T21:46:27.037Z,12.50
2018-09-30T21:48:56.322Z,12.50
2018-09-30T21:51:25.157Z,12.60
2018-09-30T21:53:54.361Z,12.60
2018-09-30T21:56:23.937Z,12.60
2018-09-30T21:58:52.834Z,12.50
2018-09-30T22:01:21.870Z,12.50
2018-09-30T22:03:50.843Z,12.50
2018-09-30T22:06:19.914Z,12.40
2018-09-30T22:08:48.789Z,12.40
2018-09-30T22:11:17.712Z,12.30
2018-09-30T22:13:46.463Z,12.30
2018-09-30T22:16:15.162Z,12.20
2018-09-30T22:18:44.039Z,12.10
2018-09-30T22:21:12.949Z,12.10
2018-09-30T22:23:41.897Z,12.20
2018-09-30T22:26:10.606Z,12.20
2018-09-30T22:28:39.498Z,12.20
2018-09-30T22:31:08.337Z,12.10
2018-09-30T22:33:37.174Z,12.10
2018-09-30T22:36:06.097Z,12.20
2018-09-30T22:38:35.304Z,12.20
2018-09-30T22:41:04.283Z,12.20
2018-09-30T22:43:33.182Z,12.00
2018-09-30T22:46:01.953Z,12.00
2018-09-30T22:48:30.951Z,12.10
2018-09-30T22:50:59.891Z,12.10
2018-09-30T22:53:28.838Z,12.00
2018-09-30T22:55:57.615Z,12.00
2018-09-30T22:58:26.412Z,12.10
2018-09-30T23:00:55.201Z,12.10
2018-09-30T23:03:24.133Z,12.20
2018-09-30T23:05:53.151Z,12.10
2018-09-30T23:08:21.944Z,12.20
2018-09-30T23:10:50.905Z,12.20
2018-09-30T23:13:20.145Z,12.20
2018-09-30T23:15:48.997Z,12.20
2018-09-30T23:18:17.744Z,12.20
2018-09-30T23:20:46.506Z,12.20
2018-09-30T23:23:15.224Z,12.30
2018-09-30T23:25:43.970Z,12.40
2018-09-30T23:28:12.668Z,12.30
2018-09-30T23:30:41.521Z,12.50
2018-09-30T23:33:10.364Z,12.50
2018-09-30T23:35:39.129Z,12.60
2018-09-30T23:38:07.878Z,12.50
2018-09-30T23:40:36.877Z,12.50
2018-09-30T23:43:05.781Z,12.70
2018-09-30T23:45:34.604Z,12.60
2018-09-30T23:48:03.526Z,12.50
2018-09-30T23:50:32.357Z,12.50
2018-09-30T23:53:01.075Z,12.50
2018-09-30T23:55:29.959Z,12.50
2018-09-30T23:58:12.945Z,12.40
